sensor_id;sensor_type;location;lat;lon;timestamp;P1;durP1;ratioP1;P2;durP2;ratioP2
37305;SDS011;23193;42.656;21.170;2023-06-05T00:01:41;8.63;;;6.32;;
37305;SDS011;23193;42.656;21.170;2023-06-05T00:04:08;9.63;;;7.18;;
37305;SDS011;23193;42.656;21.170;2023-06-05T00:06:35;7.93;;;5.78;;
37305;SDS011;23193;42.656;21.170;2023-06-05T00:09:03;9.85;;;6.85;;
37305;SDS011;23193;42.656;21.170;2023-06-05T00:11:29;8.20;;;6.47;;
37305;SDS011;23193;42.656;21.170;2023-06-05T00:13:56;10.55;;;7.05;;
37305;SDS011;23193;42.656;21.170;2023-06-05T00:16:22;10.93;;;6.55;;
37305;SDS011;23193;42.656;21.170;2023-06-05T00:18:48;12.50;;;7.00;;
37305;SDS011;23193;42.656;21.170;2023-06-05T00:21:15;11.00;;;7.05;;
37305;SDS011;23193;42.656;21.170;2023-06-05T00:23:41;11.65;;;7.30;;
37305;SDS011;23193;42.656;21.170;2023-06-05T00:26:08;14.25;;;7.82;;
37305;SDS011;23193;42.656;21.170;2023-06-05T00:28:34;18.67;;;7.82;;
37305;SDS011;23193;42.656;21.170;2023-06-05T00:31:03;8.90;;;7.18;;
37305;SDS011;23193;42.656;21.170;2023-06-05T00:33:31;10.60;;;7.13;;
37305;SDS011;23193;42.656;21.170;2023-06-05T00:35:57;8.80;;;7.45;;
37305;SDS011;23193;42.656;21.170;2023-06-05T00:38:23;9.68;;;7.13;;
37305;SDS011;23193;42.656;21.170;2023-06-05T00:40:50;11.95;;;8.18;;
37305;SDS011;23193;42.656;21.170;2023-06-05T00:43:16;9.38;;;7.88;;
37305;SDS011;23193;42.656;21.170;2023-06-05T00:45:42;16.05;;;7.93;;
37305;SDS011;23193;42.656;21.170;2023-06-05T00:48:08;11.43;;;7.70;;
37305;SDS011;23193;42.656;21.170;2023-06-05T00:50:35;11.55;;;7.70;;
37305;SDS011;23193;42.656;21.170;2023-06-05T00:53:02;10.50;;;8.23;;
37305;SDS011;23193;42.656;21.170;2023-06-05T00:55:29;14.38;;;8.00;;
37305;SDS011;23193;42.656;21.170;2023-06-05T00:57:56;13.32;;;7.68;;
37305;SDS011;23193;42.656;21.170;2023-06-05T01:00:22;11.57;;;8.35;;
37305;SDS011;23193;42.656;21.170;2023-06-05T01:02:50;12.85;;;8.70;;
37305;SDS011;23193;42.656;21.170;2023-06-05T01:05:23;19.02;;;9.38;;
37305;SDS011;23193;42.656;21.170;2023-06-05T01:07:51;12.30;;;8.38;;
37305;SDS011;23193;42.656;21.170;2023-06-05T01:10:18;12.23;;;8.73;;
37305;SDS011;23193;42.656;21.170;2023-06-05T01:15:11;12.70;;;8.70;;
37305;SDS011;23193;42.656;21.170;2023-06-05T01:17:37;14.93;;;8.43;;
37305;SDS011;23193;42.656;21.170;2023-06-05T01:20:04;16.58;;;9.20;;
37305;SDS011;23193;42.656;21.170;2023-06-05T01:22:37;12.30;;;8.53;;
37305;SDS011;23193;42.656;21.170;2023-06-05T01:25:05;14.65;;;9.77;;
37305;SDS011;23193;42.656;21.170;2023-06-05T01:35:12;17.33;;;11.65;;
37305;SDS011;23193;42.656;21.170;2023-06-05T01:37:46;17.00;;;10.98;;
37305;SDS011;23193;42.656;21.170;2023-06-05T01:40:17;12.95;;;10.10;;
37305;SDS011;23193;42.656;21.170;2023-06-05T01:42:44;13.48;;;10.43;;
37305;SDS011;23193;42.656;21.170;2023-06-05T01:45:10;18.40;;;10.57;;
37305;SDS011;23193;42.656;21.170;2023-06-05T01:47:37;13.02;;;10.00;;
37305;SDS011;23193;42.656;21.170;2023-06-05T01:50:04;18.35;;;10.75;;
37305;SDS011;23193;42.656;21.170;2023-06-05T01:52:31;24.60;;;11.88;;
37305;SDS011;23193;42.656;21.170;2023-06-05T01:54:59;15.57;;;11.88;;
37305;SDS011;23193;42.656;21.170;2023-06-05T01:57:28;20.60;;;10.90;;
37305;SDS011;23193;42.656;21.170;2023-06-05T01:59:55;18.83;;;11.80;;
37305;SDS011;23193;42.656;21.170;2023-06-05T02:02:21;18.40;;;11.32;;
37305;SDS011;23193;42.656;21.170;2023-06-05T02:04:48;18.42;;;11.13;;
37305;SDS011;23193;42.656;21.170;2023-06-05T02:07:15;16.80;;;10.52;;
37305;SDS011;23193;42.656;21.170;2023-06-05T02:09:41;18.10;;;11.48;;
37305;SDS011;23193;42.656;21.170;2023-06-05T02:12:07;25.80;;;11.95;;
37305;SDS011;23193;42.656;21.170;2023-06-05T02:14:34;15.85;;;11.38;;
37305;SDS011;23193;42.656;21.170;2023-06-05T02:17:01;29.95;;;11.60;;
37305;SDS011;23193;42.656;21.170;2023-06-05T02:19:29;18.42;;;11.90;;
37305;SDS011;23193;42.656;21.170;2023-06-05T02:21:56;18.45;;;11.93;;
37305;SDS011;23193;42.656;21.170;2023-06-05T02:24:22;20.42;;;12.73;;
37305;SDS011;23193;42.656;21.170;2023-06-05T02:26:49;21.80;;;12.88;;
37305;SDS011;23193;42.656;21.170;2023-06-05T02:29:15;28.17;;;13.65;;
37305;SDS011;23193;42.656;21.170;2023-06-05T02:31:41;16.58;;;12.45;;
37305;SDS011;23193;42.656;21.170;2023-06-05T02:34:09;15.93;;;12.32;;
37305;SDS011;23193;42.656;21.170;2023-06-05T02:36:35;20.45;;;12.70;;
37305;SDS011;23193;42.656;21.170;2023-06-05T02:39:02;23.40;;;12.98;;
37305;SDS011;23193;42.656;21.170;2023-06-05T02:41:29;21.75;;;12.68;;
37305;SDS011;23193;42.656;21.170;2023-06-05T02:43:56;18.27;;;12.07;;
37305;SDS011;23193;42.656;21.170;2023-06-05T02:46:23;17.48;;;12.90;;
37305;SDS011;23193;42.656;21.170;2023-06-05T02:48:52;18.77;;;11.88;;
37305;SDS011;23193;42.656;21.170;2023-06-05T02:51:18;21.33;;;13.63;;
37305;SDS011;23193;42.656;21.170;2023-06-05T02:53:45;22.95;;;12.65;;
37305;SDS011;23193;42.656;21.170;2023-06-05T02:56:11;21.50;;;13.05;;
37305;SDS011;23193;42.656;21.170;2023-06-05T02:58:38;22.38;;;14.02;;
37305;SDS011;23193;42.656;21.170;2023-06-05T03:01:04;19.63;;;13.57;;
37305;SDS011;23193;42.656;21.170;2023-06-05T03:03:33;24.85;;;15.35;;
37305;SDS011;23193;42.656;21.170;2023-06-05T03:06:00;25.23;;;15.27;;
37305;SDS011;23193;42.656;21.170;2023-06-05T03:08:33;22.88;;;14.98;;
37305;SDS011;23193;42.656;21.170;2023-06-05T03:11:03;22.05;;;16.10;;
37305;SDS011;23193;42.656;21.170;2023-06-05T03:13:29;21.73;;;15.27;;
37305;SDS011;23193;42.656;21.170;2023-06-05T03:15:58;21.13;;;16.00;;
37305;SDS011;23193;42.656;21.170;2023-06-05T03:18:29;24.15;;;15.18;;
37305;SDS011;23193;42.656;21.170;2023-06-05T03:20:56;28.00;;;15.13;;
37305;SDS011;23193;42.656;21.170;2023-06-05T03:23:25;32.53;;;15.52;;
37305;SDS011;23193;42.656;21.170;2023-06-05T03:25:55;20.80;;;15.05;;
37305;SDS011;23193;42.656;21.170;2023-06-05T03:28:23;19.95;;;14.35;;
37305;SDS011;23193;42.656;21.170;2023-06-05T03:30:49;23.13;;;14.75;;
37305;SDS011;23193;42.656;21.170;2023-06-05T03:33:15;18.90;;;13.73;;
37305;SDS011;23193;42.656;21.170;2023-06-05T03:35:44;21.27;;;14.40;;
37305;SDS011;23193;42.656;21.170;2023-06-05T03:38:11;19.42;;;14.88;;
37305;SDS011;23193;42.656;21.170;2023-06-05T03:40:37;20.02;;;15.05;;
37305;SDS011;23193;42.656;21.170;2023-06-05T03:43:05;22.23;;;13.85;;
37305;SDS011;23193;42.656;21.170;2023-06-05T03:45:31;25.73;;;14.88;;
37305;SDS011;23193;42.656;21.170;2023-06-05T03:47:57;19.70;;;13.68;;
37305;SDS011;23193;42.656;21.170;2023-06-05T03:50:25;21.80;;;13.85;;
37305;SDS011;23193;42.656;21.170;2023-06-05T03:52:54;24.98;;;14.73;;
37305;SDS011;23193;42.656;21.170;2023-06-05T03:55:31;24.00;;;14.00;;
37305;SDS011;23193;42.656;21.170;2023-06-05T03:58:12;20.75;;;13.77;;
37305;SDS011;23193;42.656;21.170;2023-06-05T04:00:42;22.52;;;14.23;;
37305;SDS011;23193;42.656;21.170;2023-06-05T04:03:09;30.88;;;14.05;;
37305;SDS011;23193;42.656;21.170;2023-06-05T04:05:39;23.45;;;13.45;;
37305;SDS011;23193;42.656;21.170;2023-06-05T04:08:05;26.30;;;14.63;;
37305;SDS011;23193;42.656;21.170;2023-06-05T04:10:31;19.10;;;14.52;;
37305;SDS011;23193;42.656;21.170;2023-06-05T04:12:58;17.63;;;14.07;;
37305;SDS011;23193;42.656;21.170;2023-06-05T04:15:25;29.08;;;15.05;;
37305;SDS011;23193;42.656;21.170;2023-06-05T04:17:51;25.95;;;15.32;;
37305;SDS011;23193;42.656;21.170;2023-06-05T04:20:17;26.45;;;15.23;;
37305;SDS011;23193;42.656;21.170;2023-06-05T04:22:44;24.40;;;15.00;;
37305;SDS011;23193;42.656;21.170;2023-06-05T04:25:13;30.95;;;14.85;;
37305;SDS011;23193;42.656;21.170;2023-06-05T04:27:40;24.20;;;14.68;;
37305;SDS011;23193;42.656;21.170;2023-06-05T04:30:07;22.00;;;14.02;;
37305;SDS011;23193;42.656;21.170;2023-06-05T04:32:34;23.02;;;13.57;;
37305;SDS011;23193;42.656;21.170;2023-06-05T04:35:02;18.45;;;12.82;;
37305;SDS011;23193;42.656;21.170;2023-06-05T04:37:29;23.60;;;13.55;;
37305;SDS011;23193;42.656;21.170;2023-06-05T04:39:55;21.95;;;13.40;;
37305;SDS011;23193;42.656;21.170;2023-06-05T04:42:21;29.27;;;13.48;;
37305;SDS011;23193;42.656;21.170;2023-06-05T04:44:57;25.48;;;14.32;;
37305;SDS011;23193;42.656;21.170;2023-06-05T04:47:23;22.95;;;13.75;;
37305;SDS011;23193;42.656;21.170;2023-06-05T04:49:50;27.83;;;15.07;;
37305;SDS011;23193;42.656;21.170;2023-06-05T04:52:18;22.45;;;14.60;;
37305;SDS011;23193;42.656;21.170;2023-06-05T04:54:45;27.80;;;14.63;;
37305;SDS011;23193;42.656;21.170;2023-06-05T04:57:12;33.45;;;15.07;;
37305;SDS011;23193;42.656;21.170;2023-06-05T04:59:38;35.20;;;15.25;;
37305;SDS011;23193;42.656;21.170;2023-06-05T05:02:05;34.92;;;13.98;;
37305;SDS011;23193;42.656;21.170;2023-06-05T05:04:31;30.40;;;15.05;;
37305;SDS011;23193;42.656;21.170;2023-06-05T05:06:57;26.75;;;15.52;;
37305;SDS011;23193;42.656;21.170;2023-06-05T05:09:26;34.05;;;14.70;;
37305;SDS011;23193;42.656;21.170;2023-06-05T05:11:52;20.67;;;13.15;;
37305;SDS011;23193;42.656;21.170;2023-06-05T05:14:19;26.48;;;13.38;;
37305;SDS011;23193;42.656;21.170;2023-06-05T05:16:45;16.95;;;11.68;;
37305;SDS011;23193;42.656;21.170;2023-06-05T05:19:12;16.92;;;10.07;;
37305;SDS011;23193;42.656;21.170;2023-06-05T05:21:39;13.48;;;9.43;;
37305;SDS011;23193;42.656;21.170;2023-06-05T05:24:05;18.98;;;9.43;;
37305;SDS011;23193;42.656;21.170;2023-06-05T05:26:32;15.30;;;8.23;;
37305;SDS011;23193;42.656;21.170;2023-06-05T05:28:58;11.57;;;8.50;;
37305;SDS011;23193;42.656;21.170;2023-06-05T05:31:24;16.42;;;8.75;;
37305;SDS011;23193;42.656;21.170;2023-06-05T05:33:52;11.38;;;8.02;;
37305;SDS011;23193;42.656;21.170;2023-06-05T05:36:20;14.43;;;8.50;;
37305;SDS011;23193;42.656;21.170;2023-06-05T05:38:46;15.82;;;8.80;;
37305;SDS011;23193;42.656;21.170;2023-06-05T05:41:12;13.93;;;8.63;;
37305;SDS011;23193;42.656;21.170;2023-06-05T05:43:38;15.18;;;9.00;;
37305;SDS011;23193;42.656;21.170;2023-06-05T05:46:05;13.50;;;8.05;;
37305;SDS011;23193;42.656;21.170;2023-06-05T05:48:31;18.23;;;10.90;;
37305;SDS011;23193;42.656;21.170;2023-06-05T05:50:57;20.30;;;14.55;;
37305;SDS011;23193;42.656;21.170;2023-06-05T05:53:23;17.65;;;12.77;;
37305;SDS011;23193;42.656;21.170;2023-06-05T05:55:49;13.05;;;10.25;;
37305;SDS011;23193;42.656;21.170;2023-06-05T05:58:15;14.45;;;11.57;;
37305;SDS011;23193;42.656;21.170;2023-06-05T06:00:42;46.70;;;26.35;;
37305;SDS011;23193;42.656;21.170;2023-06-05T06:03:08;17.17;;;10.43;;
37305;SDS011;23193;42.656;21.170;2023-06-05T06:05:35;17.08;;;10.30;;
37305;SDS011;23193;42.656;21.170;2023-06-05T06:08:02;19.23;;;11.30;;
37305;SDS011;23193;42.656;21.170;2023-06-05T06:10:29;17.67;;;9.93;;
37305;SDS011;23193;42.656;21.170;2023-06-05T06:12:56;18.80;;;11.32;;
37305;SDS011;23193;42.656;21.170;2023-06-05T06:15:22;17.00;;;9.88;;
37305;SDS011;23193;42.656;21.170;2023-06-05T06:17:49;17.77;;;12.20;;
37305;SDS011;23193;42.656;21.170;2023-06-05T06:20:16;20.02;;;11.85;;
37305;SDS011;23193;42.656;21.170;2023-06-05T06:22:42;27.15;;;16.20;;
37305;SDS011;23193;42.656;21.170;2023-06-05T06:25:11;28.80;;;14.88;;
37305;SDS011;23193;42.656;21.170;2023-06-05T06:27:39;29.75;;;11.90;;
37305;SDS011;23193;42.656;21.170;2023-06-05T06:30:06;48.38;;;31.13;;
37305;SDS011;23193;42.656;21.170;2023-06-05T06:32:32;26.05;;;12.60;;
37305;SDS011;23193;42.656;21.170;2023-06-05T06:34:58;29.98;;;20.30;;
37305;SDS011;23193;42.656;21.170;2023-06-05T06:37:24;23.63;;;12.40;;
37305;SDS011;23193;42.656;21.170;2023-06-05T06:39:51;19.98;;;12.48;;
37305;SDS011;23193;42.656;21.170;2023-06-05T06:42:17;17.65;;;11.60;;
37305;SDS011;23193;42.656;21.170;2023-06-05T06:44:44;24.50;;;12.32;;
37305;SDS011;23193;42.656;21.170;2023-06-05T06:47:10;15.52;;;12.05;;
37305;SDS011;23193;42.656;21.170;2023-06-05T06:49:36;22.30;;;12.10;;
37305;SDS011;23193;42.656;21.170;2023-06-05T06:52:04;26.48;;;16.92;;
37305;SDS011;23193;42.656;21.170;2023-06-05T06:54:31;24.58;;;12.02;;
37305;SDS011;23193;42.656;21.170;2023-06-05T06:56:57;24.23;;;15.05;;
37305;SDS011;23193;42.656;21.170;2023-06-05T06:59:23;22.67;;;15.10;;
37305;SDS011;23193;42.656;21.170;2023-06-05T07:02:10;25.70;;;14.73;;
37305;SDS011;23193;42.656;21.170;2023-06-05T07:04:38;30.95;;;17.70;;
37305;SDS011;23193;42.656;21.170;2023-06-05T07:07:07;18.98;;;12.93;;
37305;SDS011;23193;42.656;21.170;2023-06-05T07:09:34;20.30;;;13.48;;
37305;SDS011;23193;42.656;21.170;2023-06-05T07:12:01;23.25;;;14.50;;
37305;SDS011;23193;42.656;21.170;2023-06-05T07:14:30;20.23;;;13.15;;
37305;SDS011;23193;42.656;21.170;2023-06-05T07:16:58;18.35;;;12.85;;
37305;SDS011;23193;42.656;21.170;2023-06-05T07:19:25;22.05;;;14.05;;
37305;SDS011;23193;42.656;21.170;2023-06-05T07:21:52;22.20;;;14.07;;
37305;SDS011;23193;42.656;21.170;2023-06-05T07:24:20;20.02;;;14.70;;
37305;SDS011;23193;42.656;21.170;2023-06-05T07:29:15;22.48;;;13.52;;
37305;SDS011;23193;42.656;21.170;2023-06-05T07:31:42;26.52;;;14.27;;
37305;SDS011;23193;42.656;21.170;2023-06-05T07:34:08;40.33;;;15.40;;
37305;SDS011;23193;42.656;21.170;2023-06-05T07:36:35;20.92;;;14.57;;
37305;SDS011;23193;42.656;21.170;2023-06-05T07:39:01;17.35;;;13.85;;
37305;SDS011;23193;42.656;21.170;2023-06-05T07:41:28;18.08;;;13.45;;
37305;SDS011;23193;42.656;21.170;2023-06-05T07:43:54;135.98;;;20.05;;
37305;SDS011;23193;42.656;21.170;2023-06-05T07:46:20;20.05;;;12.40;;
37305;SDS011;23193;42.656;21.170;2023-06-05T07:48:47;25.15;;;14.32;;
37305;SDS011;23193;42.656;21.170;2023-06-05T07:51:13;22.15;;;13.77;;
37305;SDS011;23193;42.656;21.170;2023-06-05T07:53:41;21.42;;;13.38;;
37305;SDS011;23193;42.656;21.170;2023-06-05T07:56:07;28.50;;;14.88;;
37305;SDS011;23193;42.656;21.170;2023-06-05T07:58:33;14.75;;;11.85;;
37305;SDS011;23193;42.656;21.170;2023-06-05T08:01:00;14.70;;;12.45;;
37305;SDS011;23193;42.656;21.170;2023-06-05T08:03:28;17.30;;;12.48;;
37305;SDS011;23193;42.656;21.170;2023-06-05T08:05:55;16.52;;;12.48;;
37305;SDS011;23193;42.656;21.170;2023-06-05T08:08:21;17.02;;;11.75;;
37305;SDS011;23193;42.656;21.170;2023-06-05T08:10:47;17.48;;;11.93;;
37305;SDS011;23193;42.656;21.170;2023-06-05T08:13:14;24.35;;;12.60;;
37305;SDS011;23193;42.656;21.170;2023-06-05T08:15:40;16.98;;;11.07;;
37305;SDS011;23193;42.656;21.170;2023-06-05T08:18:06;14.88;;;11.60;;
37305;SDS011;23193;42.656;21.170;2023-06-05T08:20:33;15.43;;;10.68;;
37305;SDS011;23193;42.656;21.170;2023-06-05T08:22:59;18.08;;;10.75;;
37305;SDS011;23193;42.656;21.170;2023-06-05T08:25:26;14.38;;;11.25;;
37305;SDS011;23193;42.656;21.170;2023-06-05T08:27:54;16.52;;;9.75;;
37305;SDS011;23193;42.656;21.170;2023-06-05T08:30:22;26.45;;;11.55;;
37305;SDS011;23193;42.656;21.170;2023-06-05T08:32:48;15.43;;;10.15;;
37305;SDS011;23193;42.656;21.170;2023-06-05T08:35:14;12.00;;;10.30;;
37305;SDS011;23193;42.656;21.170;2023-06-05T08:37:40;22.48;;;16.52;;
37305;SDS011;23193;42.656;21.170;2023-06-05T08:40:07;15.38;;;10.20;;
37305;SDS011;23193;42.656;21.170;2023-06-05T08:42:37;13.20;;;9.63;;
37305;SDS011;23193;42.656;21.170;2023-06-05T08:45:07;15.50;;;9.80;;
37305;SDS011;23193;42.656;21.170;2023-06-05T08:47:37;17.63;;;10.18;;
37305;SDS011;23193;42.656;21.170;2023-06-05T08:50:05;21.38;;;13.32;;
37305;SDS011;23193;42.656;21.170;2023-06-05T08:52:38;26.52;;;15.25;;
37305;SDS011;23193;42.656;21.170;2023-06-05T08:55:07;17.95;;;10.63;;
37305;SDS011;23193;42.656;21.170;2023-06-05T08:57:34;12.13;;;8.90;;
37305;SDS011;23193;42.656;21.170;2023-06-05T09:00:03;14.70;;;8.57;;
37305;SDS011;23193;42.656;21.170;2023-06-05T09:02:35;11.15;;;8.48;;
37305;SDS011;23193;42.656;21.170;2023-06-05T09:05:02;17.17;;;12.57;;
37305;SDS011;23193;42.656;21.170;2023-06-05T09:07:29;20.48;;;10.98;;
37305;SDS011;23193;42.656;21.170;2023-06-05T09:09:56;9.80;;;8.52;;
37305;SDS011;23193;42.656;21.170;2023-06-05T09:12:22;14.80;;;8.48;;
37305;SDS011;23193;42.656;21.170;2023-06-05T09:14:51;11.98;;;9.20;;
37305;SDS011;23193;42.656;21.170;2023-06-05T09:17:17;9.57;;;7.32;;
37305;SDS011;23193;42.656;21.170;2023-06-05T09:19:43;20.95;;;11.57;;
37305;SDS011;23193;42.656;21.170;2023-06-05T09:22:13;25.92;;;10.25;;
37305;SDS011;23193;42.656;21.170;2023-06-05T09:24:41;18.73;;;12.60;;
37305;SDS011;23193;42.656;21.170;2023-06-05T09:27:08;17.02;;;8.88;;
37305;SDS011;23193;42.656;21.170;2023-06-05T09:29:36;12.05;;;8.32;;
37305;SDS011;23193;42.656;21.170;2023-06-05T09:32:07;10.98;;;7.60;;
37305;SDS011;23193;42.656;21.170;2023-06-05T09:34:34;11.23;;;7.75;;
37305;SDS011;23193;42.656;21.170;2023-06-05T09:37:01;8.27;;;6.43;;
37305;SDS011;23193;42.656;21.170;2023-06-05T09:39:28;11.18;;;6.97;;
37305;SDS011;23193;42.656;21.170;2023-06-05T09:41:55;12.35;;;8.32;;
37305;SDS011;23193;42.656;21.170;2023-06-05T09:44:22;21.00;;;6.85;;
37305;SDS011;23193;42.656;21.170;2023-06-05T09:49:30;9.13;;;6.75;;
37305;SDS011;23193;42.656;21.170;2023-06-05T09:51:57;11.07;;;7.20;;
37305;SDS011;23193;42.656;21.170;2023-06-05T09:54:27;10.93;;;7.45;;
37305;SDS011;23193;42.656;21.170;2023-06-05T09:57:00;11.18;;;8.30;;
37305;SDS011;23193;42.656;21.170;2023-06-05T09:59:27;11.90;;;7.78;;
37305;SDS011;23193;42.656;21.170;2023-06-05T10:01:55;12.95;;;7.30;;
37305;SDS011;23193;42.656;21.170;2023-06-05T10:04:23;11.57;;;7.60;;
37305;SDS011;23193;42.656;21.170;2023-06-05T10:06:50;13.48;;;7.72;;
37305;SDS011;23193;42.656;21.170;2023-06-05T10:09:17;12.77;;;7.07;;
37305;SDS011;23193;42.656;21.170;2023-06-05T10:11:43;9.82;;;7.38;;
37305;SDS011;23193;42.656;21.170;2023-06-05T10:14:18;10.30;;;6.35;;
37305;SDS011;23193;42.656;21.170;2023-06-05T10:16:44;12.90;;;6.97;;
37305;SDS011;23193;42.656;21.170;2023-06-05T10:19:16;10.60;;;7.28;;
37305;SDS011;23193;42.656;21.170;2023-06-05T10:21:43;18.10;;;7.38;;
37305;SDS011;23193;42.656;21.170;2023-06-05T10:24:13;10.27;;;6.88;;
37305;SDS011;23193;42.656;21.170;2023-06-05T10:32:02;10.35;;;6.68;;
37305;SDS011;23193;42.656;21.170;2023-06-05T10:39:28;13.50;;;6.65;;
37305;SDS011;23193;42.656;21.170;2023-06-05T10:41:56;11.18;;;6.97;;
37305;SDS011;23193;42.656;21.170;2023-06-05T10:44:40;7.90;;;6.35;;
37305;SDS011;23193;42.656;21.170;2023-06-05T10:47:51;12.98;;;7.20;;
37305;SDS011;23193;42.656;21.170;2023-06-05T10:52:38;9.75;;;6.97;;
37305;SDS011;23193;42.656;21.170;2023-06-05T10:55:04;12.45;;;8.57;;
37305;SDS011;23193;42.656;21.170;2023-06-05T11:00:16;11.82;;;6.45;;
37305;SDS011;23193;42.656;21.170;2023-06-05T11:02:46;15.30;;;8.77;;
37305;SDS011;23193;42.656;21.170;2023-06-05T11:05:13;8.15;;;6.25;;
37305;SDS011;23193;42.656;21.170;2023-06-05T11:07:40;9.35;;;5.90;;
37305;SDS011;23193;42.656;21.170;2023-06-05T11:13:16;11.25;;;6.65;;
37305;SDS011;23193;42.656;21.170;2023-06-05T11:17:55;11.35;;;5.63;;
37305;SDS011;23193;42.656;21.170;2023-06-05T11:27:47;6.28;;;4.85;;
37305;SDS011;23193;42.656;21.170;2023-06-05T11:30:18;6.63;;;4.72;;
37305;SDS011;23193;42.656;21.170;2023-06-05T11:32:45;5.45;;;4.63;;
37305;SDS011;23193;42.656;21.170;2023-06-05T11:35:11;21.58;;;10.07;;
37305;SDS011;23193;42.656;21.170;2023-06-05T11:37:37;7.65;;;5.45;;
37305;SDS011;23193;42.656;21.170;2023-06-05T11:40:05;6.25;;;5.22;;
37305;SDS011;23193;42.656;21.170;2023-06-05T11:42:38;19.25;;;9.30;;
37305;SDS011;23193;42.656;21.170;2023-06-05T11:45:11;6.70;;;4.18;;
37305;SDS011;23193;42.656;21.170;2023-06-05T11:47:38;5.88;;;4.50;;
37305;SDS011;23193;42.656;21.170;2023-06-05T11:52:34;9.40;;;4.85;;
37305;SDS011;23193;42.656;21.170;2023-06-05T11:55:13;7.88;;;5.75;;
37305;SDS011;23193;42.656;21.170;2023-06-05T11:57:44;16.92;;;11.35;;
37305;SDS011;23193;42.656;21.170;2023-06-05T12:00:12;6.97;;;5.20;;
37305;SDS011;23193;42.656;21.170;2023-06-05T12:02:39;8.23;;;5.00;;
37305;SDS011;23193;42.656;21.170;2023-06-05T12:05:05;10.30;;;5.00;;
37305;SDS011;23193;42.656;21.170;2023-06-05T12:07:35;7.38;;;4.95;;
37305;SDS011;23193;42.656;21.170;2023-06-05T12:10:08;8.02;;;4.90;;
37305;SDS011;23193;42.656;21.170;2023-06-05T12:12:56;10.77;;;4.90;;
37305;SDS011;23193;42.656;21.170;2023-06-05T12:15:21;11.80;;;4.70;;
37305;SDS011;23193;42.656;21.170;2023-06-05T12:17:51;7.97;;;5.35;;
37305;SDS011;23193;42.656;21.170;2023-06-05T12:20:19;8.65;;;5.28;;
37305;SDS011;23193;42.656;21.170;2023-06-05T12:22:45;8.90;;;4.70;;
37305;SDS011;23193;42.656;21.170;2023-06-05T12:25:15;7.55;;;5.25;;
37305;SDS011;23193;42.656;21.170;2023-06-05T12:27:41;6.93;;;4.85;;
37305;SDS011;23193;42.656;21.170;2023-06-05T12:30:09;14.57;;;5.05;;
37305;SDS011;23193;42.656;21.170;2023-06-05T12:32:35;10.13;;;4.72;;
37305;SDS011;23193;42.656;21.170;2023-06-05T12:35:04;7.68;;;4.60;;
37305;SDS011;23193;42.656;21.170;2023-06-05T12:37:32;23.38;;;5.80;;
37305;SDS011;23193;42.656;21.170;2023-06-05T12:40:02;6.30;;;4.65;;
37305;SDS011;23193;42.656;21.170;2023-06-05T12:42:36;7.10;;;4.57;;
37305;SDS011;23193;42.656;21.170;2023-06-05T12:45:03;12.60;;;4.18;;
37305;SDS011;23193;42.656;21.170;2023-06-05T12:47:30;5.85;;;4.30;;
37305;SDS011;23193;42.656;21.170;2023-06-05T12:49:56;11.80;;;7.88;;
37305;SDS011;23193;42.656;21.170;2023-06-05T12:52:23;10.18;;;4.07;;
37305;SDS011;23193;42.656;21.170;2023-06-05T12:54:54;4.72;;;3.70;;
37305;SDS011;23193;42.656;21.170;2023-06-05T12:57:21;7.57;;;3.53;;
37305;SDS011;23193;42.656;21.170;2023-06-05T12:59:48;4.10;;;3.50;;
37305;SDS011;23193;42.656;21.170;2023-06-05T13:02:15;5.47;;;3.58;;
37305;SDS011;23193;42.656;21.170;2023-06-05T13:04:42;8.15;;;3.72;;
37305;SDS011;23193;42.656;21.170;2023-06-05T13:07:08;11.23;;;5.07;;
37305;SDS011;23193;42.656;21.170;2023-06-05T13:09:36;12.60;;;4.45;;
37305;SDS011;23193;42.656;21.170;2023-06-05T13:12:02;6.68;;;3.55;;
37305;SDS011;23193;42.656;21.170;2023-06-05T13:14:29;15.80;;;4.65;;
37305;SDS011;23193;42.656;21.170;2023-06-05T13:16:56;4.50;;;3.53;;
37305;SDS011;23193;42.656;21.170;2023-06-05T13:19:22;15.13;;;8.30;;
37305;SDS011;23193;42.656;21.170;2023-06-05T13:21:48;10.20;;;6.00;;
37305;SDS011;23193;42.656;21.170;2023-06-05T13:24:15;6.43;;;5.05;;
37305;SDS011;23193;42.656;21.170;2023-06-05T13:26:41;11.43;;;4.80;;
37305;SDS011;23193;42.656;21.170;2023-06-05T13:29:08;8.43;;;3.75;;
37305;SDS011;23193;42.656;21.170;2023-06-05T13:31:34;10.55;;;3.90;;
37305;SDS011;23193;42.656;21.170;2023-06-05T13:34:01;15.60;;;4.50;;
37305;SDS011;23193;42.656;21.170;2023-06-05T13:36:27;8.65;;;3.92;;
37305;SDS011;23193;42.656;21.170;2023-06-05T13:38:54;7.03;;;4.13;;
37305;SDS011;23193;42.656;21.170;2023-06-05T13:41:20;6.38;;;4.05;;
37305;SDS011;23193;42.656;21.170;2023-06-05T13:43:47;13.32;;;4.50;;
37305;SDS011;23193;42.656;21.170;2023-06-05T13:46:14;10.18;;;3.97;;
37305;SDS011;23193;42.656;21.170;2023-06-05T13:48:40;7.13;;;3.83;;
37305;SDS011;23193;42.656;21.170;2023-06-05T13:51:07;12.73;;;4.05;;
37305;SDS011;23193;42.656;21.170;2023-06-05T13:53:33;8.75;;;4.07;;
37305;SDS011;23193;42.656;21.170;2023-06-05T13:56:00;4.43;;;3.90;;
37305;SDS011;23193;42.656;21.170;2023-06-05T13:58:27;11.25;;;3.90;;
37305;SDS011;23193;42.656;21.170;2023-06-05T14:00:53;12.68;;;9.48;;
37305;SDS011;23193;42.656;21.170;2023-06-05T14:03:20;8.88;;;4.53;;
37305;SDS011;23193;42.656;21.170;2023-06-05T14:05:47;8.57;;;4.10;;
37305;SDS011;23193;42.656;21.170;2023-06-05T14:08:13;10.00;;;3.88;;
37305;SDS011;23193;42.656;21.170;2023-06-05T14:10:39;8.10;;;3.97;;
37305;SDS011;23193;42.656;21.170;2023-06-05T14:13:05;12.13;;;4.95;;
37305;SDS011;23193;42.656;21.170;2023-06-05T14:15:32;8.98;;;5.07;;
37305;SDS011;23193;42.656;21.170;2023-06-05T14:18:00;9.25;;;4.75;;
37305;SDS011;23193;42.656;21.170;2023-06-05T14:20:26;9.73;;;5.57;;
37305;SDS011;23193;42.656;21.170;2023-06-05T14:22:58;15.93;;;5.25;;
37305;SDS011;23193;42.656;21.170;2023-06-05T14:25:24;18.67;;;5.70;;
37305;SDS011;23193;42.656;21.170;2023-06-05T14:27:54;19.50;;;5.68;;
37305;SDS011;23193;42.656;21.170;2023-06-05T14:30:21;11.25;;;5.53;;
37305;SDS011;23193;42.656;21.170;2023-06-05T14:32:47;13.15;;;5.53;;
37305;SDS011;23193;42.656;21.170;2023-06-05T14:35:13;17.20;;;6.03;;
37305;SDS011;23193;42.656;21.170;2023-06-05T14:37:41;14.27;;;6.00;;
37305;SDS011;23193;42.656;21.170;2023-06-05T14:40:07;9.73;;;5.80;;
37305;SDS011;23193;42.656;21.170;2023-06-05T14:42:34;10.85;;;5.10;;
37305;SDS011;23193;42.656;21.170;2023-06-05T14:45:01;10.90;;;5.45;;
37305;SDS011;23193;42.656;21.170;2023-06-05T14:47:27;29.40;;;6.00;;
37305;SDS011;23193;42.656;21.170;2023-06-05T14:49:53;13.80;;;5.82;;
37305;SDS011;23193;42.656;21.170;2023-06-05T14:52:20;15.35;;;5.70;;
37305;SDS011;23193;42.656;21.170;2023-06-05T14:54:46;8.80;;;4.15;;
37305;SDS011;23193;42.656;21.170;2023-06-05T14:57:12;6.20;;;4.65;;
37305;SDS011;23193;42.656;21.170;2023-06-05T14:59:38;10.25;;;5.00;;
37305;SDS011;23193;42.656;21.170;2023-06-05T15:02:05;6.97;;;4.95;;
37305;SDS011;23193;42.656;21.170;2023-06-05T15:04:31;8.95;;;6.50;;
37305;SDS011;23193;42.656;21.170;2023-06-05T15:06:58;10.05;;;6.25;;